createdAt,value
2017-11-03T00:01:05.984Z,82.94
2017-11-03T00:03:33.606Z,82.97
2017-11-03T00:06:01.227Z,83.33
2017-11-03T00:08:28.801Z,83.50
2017-11-03T00:10:56.426Z,83.58
2017-11-03T00:13:23.996Z,83.76
2017-11-03T00:15:51.556Z,83.89
2017-11-03T00:18:19.174Z,84.21
2017-11-03T00:20:46.782Z,84.71
2017-11-03T00:23:14.909Z,84.53
2017-11-03T00:25:42.467Z,84.40
2017-11-03T00:28:10.087Z,84.42
2017-11-03T00:30:37.678Z,84.33
2017-11-03T00:33:05.385Z,83.82
2017-11-03T00:35:32.951Z,84.22
2017-11-03T00:38:00.564Z,84.27
2017-11-03T00:40:28.107Z,84.85
2017-11-03T00:42:55.670Z,85.06
2017-11-03T00:45:24.012Z,84.62
2017-11-03T00:47:51.618Z,84.48
2017-11-03T00:50:19.228Z,84.68
2017-11-03T00:52:46.815Z,84.90
2017-11-03T00:55:14.490Z,85.08
2017-11-03T00:57:42.281Z,85.12
2017-11-03T01:00:10.058Z,84.72
2017-11-03T01:02:37.683Z,84.62
2017-11-03T01:05:05.302Z,84.40
2017-11-03T01:07:32.961Z,83.97
2017-11-03T01:10:00.602Z,84.22
2017-11-03T01:12:28.165Z,84.01
2017-11-03T01:14:55.766Z,83.49
2017-11-03T01:17:23.383Z,83.09
2017-11-03T01:19:50.941Z,82.32
2017-11-03T01:22:18.538Z,82.62
2017-11-03T01:24:46.099Z,82.78
2017-11-03T01:27:13.824Z,82.76
2017-11-03T01:29:41.400Z,82.68
2017-11-03T01:32:09.123Z,82.61
2017-11-03T01:34:36.704Z,83.02
2017-11-03T01:37:04.326Z,82.73
2017-11-03T01:39:31.902Z,83.54
2017-11-03T01:41:59.480Z,83.49
2017-11-03T01:44:27.106Z,83.73
2017-11-03T01:46:54.678Z,83.75
2017-11-03T01:49:22.372Z,83.22
2017-11-03T01:51:50.034Z,83.17
2017-11-03T01:54:17.626Z,83.58
2017-11-03T01:56:45.213Z,83.61
2017-11-03T01:59:12.939Z,83.46
2017-11-03T02:01:40.500Z,83.24
2017-11-03T02:04:08.236Z,83.45
2017-11-03T02:06:35.832Z,83.53
2017-11-03T02:09:03.632Z,82.76
2017-11-03T02:11:31.393Z,83.11
2017-11-03T02:13:58.961Z,83.35
2017-11-03T02:16:26.517Z,83.30
2017-11-03T02:18:54.165Z,83.16
2017-11-03T02:21:21.765Z,83.05
2017-11-03T02:23:49.326Z,83.61
2017-11-03T02:26:16.990Z,82.43
2017-11-03T02:28:44.632Z,79.61
2017-11-03T02:31:12.334Z,79.22
2017-11-03T02:33:39.909Z,77.98
2017-11-03T02:36:07.637Z,78.10
2017-11-03T02:38:35.345Z,77.82
2017-11-03T02:41:02.925Z,76.55
2017-11-03T02:43:30.516Z,77.15
2017-11-03T02:45:58.160Z,76.57
2017-11-03T02:48:25.762Z,75.71
2017-11-03T02:50:53.349Z,73.86
2017-11-03T02:53:21.035Z,73.38
2017-11-03T02:55:48.585Z,74.11
2017-11-03T02:58:16.501Z,73.04
2017-11-03T03:00:44.543Z,73.01
2017-11-03T03:03:12.473Z,73.77
2017-11-03T03:05:40.028Z,74.03
2017-11-03T03:08:07.616Z,74.00
2017-11-03T03:10:35.188Z,74.02
2017-11-03T03:13:02.782Z,74.00
2017-11-03T03:15:30.532Z,75.20
2017-11-03T03:17:58.134Z,75.49
2017-11-03T03:20:25.826Z,74.82
2017-11-03T03:22:55.078Z,73.84
2017-11-03T03:25:22.738Z,75.57
2017-11-03T03:27:50.754Z,76.80
2017-11-03T03:30:18.339Z,77.99
2017-11-03T03:32:45.913Z,79.93
2017-11-03T03:35:13.743Z,80.23
2017-11-03T03:37:41.395Z,80.30
2017-11-03T03:40:08.949Z,79.91
2017-11-03T03:42:37.836Z,80.33
2017-11-03T03:45:05.490Z,81.80
2017-11-03T04:29:58.563Z,82.36
2017-11-03T04:32:26.191Z,82.33
2017-11-03T04:37:25.493Z,83.36
2017-11-03T04:39:53.137Z,83.52
2017-11-03T04:42:20.713Z,83.86
2017-11-03T04:44:48.276Z,84.10
2017-11-03T04:47:15.893Z,84.45
2017-11-03T04:49:43.473Z,84.36
2017-11-03T04:52:11.070Z,83.92
2017-11-03T04:54:38.683Z,84.13
2017-11-03T04:57:06.234Z,84.03
2017-11-03T04:59:33.793Z,83.76
2017-11-03T05:02:01.421Z,83.98
2017-11-03T05:04:29.008Z,84.16
2017-11-03T05:06:56.594Z,84.03
2017-11-03T05:09:24.175Z,83.52
2017-11-03T05:11:51.758Z,83.44
2017-11-03T05:14:19.327Z,83.51
2017-11-03T05:16:46.921Z,84.08
2017-11-03T05:19:14.477Z,83.94
2017-11-03T05:21:42.032Z,83.51
2017-11-03T05:24:09.613Z,83.62
2017-11-03T05:26:37.153Z,83.86
2017-11-03T05:29:04.713Z,83.96
2017-11-03T05:31:32.311Z,84.30
2017-11-03T05:33:59.890Z,84.42
2017-11-03T05:36:27.485Z,84.99
2017-11-03T05:38:55.093Z,85.40
2017-11-03T05:41:22.703Z,86.35
2017-11-03T05:43:50.261Z,87.04
2017-11-03T05:46:17.838Z,86.79
2017-11-03T05:48:45.410Z,87.34
2017-11-03T05:51:12.965Z,87.26
2017-11-03T05:53:40.562Z,87.44
2017-11-03T05:56:08.275Z,87.36
2017-11-03T05:58:36.504Z,88.16
2017-11-03T06:01:04.112Z,88.64
2017-11-03T06:03:32.101Z,89.09
2017-11-03T06:05:59.723Z,88.93
2017-11-03T06:08:27.641Z,88.81
2017-11-03T06:10:56.538Z,88.62
2017-11-03T06:13:25.604Z,88.42
2017-11-03T06:15:53.265Z,88.29
2017-11-03T06:18:20.894Z,88.57
2017-11-03T06:20:48.533Z,88.88
2017-11-03T06:23:16.103Z,88.83
2017-11-03T06:25:44.753Z,88.64
2017-11-03T06:28:12.395Z,88.60
2017-11-03T06:30:39.958Z,88.63
2017-11-03T06:33:07.511Z,89.29
2017-11-03T06:35:35.085Z,88.87
2017-11-03T06:38:02.632Z,88.36
2017-11-03T06:40:30.226Z,87.98
2017-11-03T06:42:57.835Z,87.88
2017-11-03T06:45:25.402Z,87.62
2017-11-03T06:47:52.982Z,87.22
2017-11-03T06:50:20.588Z,85.52
2017-11-03T06:52:48.198Z,84.88
2017-11-03T06:55:15.818Z,83.96
2017-11-03T06:57:43.406Z,84.17
2017-11-03T07:00:11.014Z,83.08
2017-11-03T07:02:38.599Z,82.53
2017-11-03T07:05:06.167Z,82.64
2017-11-03T07:07:33.745Z,83.14
2017-11-03T07:10:01.323Z,84.26
2017-11-03T07:12:28.912Z,85.72
2017-11-03T07:14:56.499Z,86.43
2017-11-03T07:17:24.083Z,86.36
2017-11-03T07:19:51.684Z,85.84
2017-11-03T07:22:19.244Z,85.49
2017-11-03T07:24:46.843Z,85.21
2017-11-03T07:27:14.448Z,85.59
2017-11-03T07:29:42.011Z,86.02
2017-11-03T07:32:09.577Z,86.47
2017-11-03T07:34:37.173Z,86.57
2017-11-03T07:37:04.754Z,86.13
2017-11-03T07:39:32.330Z,85.90
2017-11-03T07:41:59.897Z,85.97
2017-11-03T07:44:27.458Z,85.72
2017-11-03T07:46:55.065Z,85.58
2017-11-03T07:49:22.654Z,84.63
2017-11-03T07:51:50.222Z,83.25
2017-11-03T07:54:17.797Z,82.25
2017-11-03T07:56:45.350Z,79.83
2017-11-03T07:59:12.932Z,77.80
2017-11-03T08:01:40.539Z,77.26
2017-11-03T08:04:08.127Z,77.02
2017-11-03T08:06:35.701Z,75.83
2017-11-03T08:09:03.527Z,76.23
2017-11-03T08:11:31.080Z,76.28
2017-11-03T08:13:58.717Z,75.87
2017-11-03T08:16:26.361Z,75.92
2017-11-03T08:18:53.918Z,75.17
2017-11-03T08:21:21.519Z,73.08
2017-11-03T08:23:49.134Z,70.15
2017-11-03T08:26:16.718Z,68.55
2017-11-03T08:28:44.298Z,66.98
2017-11-03T08:31:11.940Z,67.80
2017-11-03T08:33:39.569Z,67.93
2017-11-03T08:36:07.155Z,66.16
2017-11-03T08:38:34.761Z,65.98
2017-11-03T08:41:02.335Z,65.85
2017-11-03T08:43:29.895Z,66.30
2017-11-03T08:45:57.478Z,65.79
2017-11-03T08:48:25.073Z,64.90
2017-11-03T08:50:52.642Z,63.11
2017-11-03T08:53:20.228Z,64.20
2017-11-03T08:55:47.813Z,64.47
2017-11-03T08:58:15.397Z,65.66
2017-11-03T09:00:43.008Z,64.91
2017-11-03T09:03:10.603Z,65.30
2017-11-03T09:05:38.202Z,65.19
2017-11-03T09:08:05.775Z,63.78
2017-11-03T09:10:33.406Z,61.03
2017-11-03T09:13:00.986Z,61.40
2017-11-03T09:15:28.556Z,58.38
2017-11-03T09:17:56.142Z,57.82
2017-11-03T09:20:23.796Z,57.23
2017-11-03T09:22:51.359Z,58.20
2017-11-03T09:25:19.007Z,57.48
2017-11-03T09:27:46.571Z,58.75
2017-11-03T09:30:14.137Z,58.17
2017-11-03T09:32:41.729Z,58.00
2017-11-03T09:35:09.293Z,55.87
2017-11-03T09:37:36.866Z,53.97
2017-11-03T09:40:04.447Z,54.42
2017-11-03T09:42:32.010Z,55.38
2017-11-03T09:45:02.322Z,55.36
2017-11-03T09:47:30.117Z,57.14
2017-11-03T09:49:57.671Z,57.22
2017-11-03T09:52:25.232Z,57.35
2017-11-03T09:54:52.833Z,56.31
2017-11-03T09:57:20.402Z,56.65
2017-11-03T09:59:47.973Z,55.28
2017-11-03T10:02:15.623Z,55.94
2017-11-03T10:04:43.196Z,55.46
2017-11-03T10:07:10.739Z,56.30
2017-11-03T10:09:38.368Z,56.85
2017-11-03T10:12:05.958Z,56.52
2017-11-03T10:14:35.923Z,55.69
2017-11-03T10:17:03.520Z,56.29
2017-11-03T10:19:31.090Z,56.69
2017-11-03T10:21:58.662Z,55.92
2017-11-03T10:24:26.272Z,56.95
2017-11-03T10:26:53.855Z,57.18
2017-11-03T10:29:21.451Z,56.34
2017-11-03T10:31:49.033Z,55.17
2017-11-03T10:34:17.495Z,53.04
2017-11-03T10:36:45.237Z,52.60
2017-11-03T10:39:12.875Z,52.65
2017-11-03T10:41:40.479Z,54.05
2017-11-03T10:44:08.033Z,52.93
2017-11-03T10:46:35.696Z,51.72
2017-11-03T10:49:03.290Z,52.35
2017-11-03T10:51:35.371Z,53.22
2017-11-03T10:54:03.011Z,54.09
2017-11-03T10:56:30.614Z,53.47
2017-11-03T10:58:58.597Z,53.37
2017-11-03T11:01:26.740Z,53.06
2017-11-03T11:03:54.960Z,53.92
2017-11-03T11:06:22.550Z,51.57
2017-11-03T11:08:50.151Z,52.18
2017-11-03T11:11:17.747Z,51.82
2017-11-03T11:13:45.336Z,51.38
2017-11-03T11:16:13.151Z,48.58
2017-11-03T11:18:40.737Z,50.59
2017-11-03T11:21:08.813Z,51.03
2017-11-03T11:23:36.455Z,49.70
2017-11-03T11:26:04.030Z,50.22
2017-11-03T11:28:31.644Z,51.69
2017-11-03T11:30:59.242Z,50.48
2017-11-03T11:33:26.845Z,51.12
2017-11-03T11:35:54.422Z,49.50
2017-11-03T11:38:22.043Z,50.12
2017-11-03T11:40:49.632Z,50.13
2017-11-03T11:43:17.210Z,50.33
2017-11-03T11:45:44.828Z,51.65
2017-11-03T11:48:12.420Z,51.45
2017-11-03T11:50:40.060Z,50.92
2017-11-03T11:53:07.710Z,51.37
2017-11-03T11:55:35.366Z,52.33
2017-11-03T11:58:03.017Z,51.49
2017-11-03T12:00:30.676Z,50.39
2017-11-03T12:02:58.253Z,49.61
2017-11-03T12:05:25.859Z,48.78
2017-11-03T12:07:53.531Z,50.32
2017-11-03T12:10:21.228Z,51.08
2017-11-03T12:12:48.853Z,53.09
2017-11-03T12:15:16.485Z,51.63
2017-11-03T12:17:44.088Z,49.88
2017-11-03T12:20:11.680Z,49.57
2017-11-03T12:22:39.281Z,49.38
2017-11-03T12:25:06.889Z,49.92
2017-11-03T12:27:34.489Z,50.01
2017-11-03T12:30:02.094Z,51.54
2017-11-03T12:32:29.687Z,50.49
2017-11-03T12:34:57.276Z,50.12
2017-11-03T12:37:24.870Z,50.71
2017-11-03T12:39:52.486Z,51.45
2017-11-03T12:42:20.092Z,51.69
2017-11-03T12:44:47.668Z,51.57
2017-11-03T12:47:15.301Z,51.70
2017-11-03T12:49:42.881Z,52.04
2017-11-03T12:52:10.469Z,52.39
2017-11-03T12:54:38.087Z,52.90
2017-11-03T12:57:05.654Z,53.04
2017-11-03T12:59:33.242Z,53.13
2017-11-03T13:02:00.898Z,49.69
2017-11-03T13:04:28.476Z,49.27
2017-11-03T13:06:56.071Z,46.17
2017-11-03T13:09:23.754Z,46.75
2017-11-03T13:11:51.338Z,48.83
2017-11-03T13:14:18.934Z,49.98
2017-11-03T13:16:46.942Z,50.89
2017-11-03T13:19:14.494Z,50.53
2017-11-03T13:21:42.118Z,50.19
2017-11-03T13:24:09.745Z,50.42
2017-11-03T13:26:37.394Z,50.89
2017-11-03T13:29:05.005Z,49.73
2017-11-03T13:31:32.586Z,49.40
2017-11-03T13:34:00.163Z,48.92
2017-11-03T13:36:27.795Z,48.91
2017-11-03T13:38:55.408Z,48.61
2017-11-03T13:41:23.019Z,49.71
2017-11-03T13:43:50.647Z,49.45
2017-11-03T13:46:18.554Z,50.35
2017-11-03T13:48:46.170Z,49.71
2017-11-03T13:51:13.757Z,49.20
2017-11-03T13:53:41.412Z,48.45
2017-11-03T13:56:09.027Z,44.62
2017-11-03T13:58:36.653Z,46.54
2017-11-03T14:01:04.294Z,46.24
2017-11-03T14:03:31.866Z,44.00
2017-11-03T14:05:59.519Z,42.48
2017-11-03T14:08:27.167Z,45.12
2017-11-03T14:10:54.755Z,45.16
2017-11-03T14:13:22.378Z,47.20
2017-11-03T14:15:49.978Z,49.56
2017-11-03T14:18:17.622Z,51.42
2017-11-03T14:20:45.253Z,52.30
2017-11-03T14:23:13.108Z,53.22
2017-11-03T14:25:40.772Z,53.39
2017-11-03T14:28:08.467Z,54.92
2017-11-03T14:30:36.107Z,55.06
2017-11-03T14:33:03.723Z,55.94
2017-11-03T14:35:31.293Z,57.79
2017-11-03T14:37:58.904Z,58.52
2017-11-03T14:40:26.536Z,59.60
2017-11-03T14:42:54.138Z,60.19
2017-11-03T14:45:21.758Z,59.98
2017-11-03T14:47:49.334Z,60.97
2017-11-03T14:50:16.882Z,61.20
2017-11-03T14:52:44.469Z,61.54
2017-11-03T14:55:12.054Z,63.44
2017-11-03T14:57:40.415Z,66.33
2017-11-03T15:00:08.041Z,67.64
2017-11-03T15:02:35.622Z,69.69
2017-11-03T15:05:03.202Z,71.21
2017-11-03T15:07:30.775Z,71.86
2017-11-03T15:09:58.329Z,72.66
2017-11-03T15:12:25.936Z,73.83
2017-11-03T15:14:53.492Z,73.12
2017-11-03T15:17:21.132Z,74.20
2017-11-03T15:19:48.756Z,74.89
2017-11-03T15:22:17.192Z,75.56
2017-11-03T15:24:44.778Z,75.83
2017-11-03T15:27:12.403Z,75.93
2017-11-03T15:29:39.970Z,76.60
2017-11-03T15:32:07.544Z,76.44
2017-11-03T15:34:35.167Z,76.32
2017-11-03T15:37:02.779Z,76.16
2017-11-03T15:39:30.376Z,76.63
2017-11-03T15:41:57.931Z,76.72
2017-11-03T15:44:25.493Z,76.94
2017-11-03T15:46:53.115Z,77.19
2017-11-03T15:49:20.717Z,77.36
2017-11-03T15:51:48.293Z,77.44
2017-11-03T15:54:15.911Z,78.71
2017-11-03T15:56:43.481Z,79.59
2017-11-03T15:59:11.058Z,79.87
2017-11-03T16:01:38.653Z,80.42
2017-11-03T16:04:06.212Z,80.94
2017-11-03T16:06:33.809Z,81.53
2017-11-03T16:09:01.461Z,81.84
2017-11-03T16:11:29.060Z,82.18
2017-11-03T16:13:56.633Z,82.60
2017-11-03T16:16:24.258Z,82.51
2017-11-03T16:18:51.825Z,82.41
2017-11-03T16:21:19.490Z,82.19
2017-11-03T16:23:47.078Z,82.37
2017-11-03T16:26:14.640Z,82.67
2017-11-03T16:28:42.259Z,82.94
2017-11-03T16:31:09.847Z,83.14
2017-11-03T16:33:37.424Z,82.95
2017-11-03T16:36:05.361Z,82.54
2017-11-03T16:38:32.937Z,82.65
2017-11-03T16:41:00.523Z,82.87
2017-11-03T16:43:28.403Z,82.65
2017-11-03T16:45:56.001Z,82.68
2017-11-03T16:48:23.606Z,83.06
2017-11-03T16:50:51.217Z,82.85
2017-11-03T16:53:18.839Z,82.88
2017-11-03T16:55:46.448Z,82.80
2017-11-03T16:58:14.084Z,82.93
2017-11-03T17:00:41.708Z,83.49
2017-11-03T17:03:09.298Z,83.23
2017-11-03T17:05:36.923Z,83.29
2017-11-03T17:08:04.523Z,83.08
2017-11-03T17:10:32.178Z,83.28
2017-11-03T17:12:59.815Z,83.80
2017-11-03T17:15:27.799Z,83.97
2017-11-03T17:17:55.568Z,84.48
2017-11-03T17:20:23.253Z,84.85
2017-11-03T17:22:50.859Z,85.08
2017-11-03T17:25:18.579Z,85.01
2017-11-03T17:27:46.166Z,84.90
2017-11-03T17:30:13.803Z,85.42
2017-11-03T17:32:41.507Z,85.35
2017-11-03T17:35:09.149Z,85.38
2017-11-03T17:37:36.806Z,85.67
2017-11-03T17:40:04.466Z,85.47
2017-11-03T17:42:32.116Z,85.32
2017-11-03T17:44:59.924Z,85.19
2017-11-03T17:47:27.622Z,84.72
2017-11-03T17:49:55.273Z,84.78
2017-11-03T17:52:22.852Z,84.44
2017-11-03T17:54:50.451Z,84.60
2017-11-03T17:57:18.123Z,85.08
2017-11-03T17:59:45.708Z,85.02
2017-11-03T18:02:13.271Z,85.30
2017-11-03T18:04:40.981Z,85.51
2017-11-03T18:07:08.669Z,85.52
2017-11-03T18:09:36.296Z,85.94
2017-11-03T18:12:04.284Z,86.55
2017-11-03T18:14:31.874Z,86.24
2017-11-03T18:16:59.473Z,86.50
2017-11-03T18:19:27.225Z,86.41
2017-11-03T18:21:54.812Z,86.41
2017-11-03T18:24:22.421Z,86.48
2017-11-03T18:26:50.066Z,86.41
2017-11-03T18:29:17.719Z,87.33
2017-11-03T18:31:45.310Z,87.66
2017-11-03T18:34:12.899Z,87.70
2017-11-03T18:36:40.518Z,87.91
2017-11-03T18:39:08.156Z,87.96
2017-11-03T18:41:35.825Z,87.47
2017-11-03T18:44:03.429Z,87.69
2017-11-03T18:46:31.047Z,88.17
2017-11-03T18:48:58.615Z,88.09
2017-11-03T18:51:26.218Z,88.16
2017-11-03T18:53:54.351Z,88.19
2017-11-03T18:56:21.949Z,88.54
2017-11-03T18:58:49.570Z,88.36
2017-11-03T19:01:17.137Z,88.48
2017-11-03T19:03:44.687Z,88.63
2017-11-03T19:06:12.321Z,88.75
2017-11-03T19:08:39.940Z,88.42
2017-11-03T19:11:07.557Z,89.01
2017-11-03T19:13:35.197Z,88.95
2017-11-03T19:16:02.793Z,88.73
2017-11-03T19:18:30.387Z,88.51
2017-11-03T19:20:58.040Z,87.93
2017-11-03T19:23:25.645Z,88.07
2017-11-03T19:25:53.269Z,88.53
2017-11-03T19:28:20.854Z,88.50
2017-11-03T19:30:48.819Z,88.48
2017-11-03T19:33:16.441Z,88.62
2017-11-03T19:35:44.095Z,88.46
2017-11-03T19:38:11.677Z,88.92
2017-11-03T19:40:39.277Z,89.14
2017-11-03T19:43:06.936Z,89.19
2017-11-03T19:45:34.531Z,88.89
2017-11-03T19:48:02.095Z,88.36
2017-11-03T19:50:29.745Z,88.11
2017-11-03T19:52:57.348Z,87.69
2017-11-03T19:55:24.915Z,87.76
2017-11-03T19:57:52.547Z,88.40
2017-11-03T20:00:20.107Z,88.59
2017-11-03T20:02:47.685Z,88.55
2017-11-03T20:05:15.295Z,88.50
2017-11-03T20:07:42.913Z,88.66
2017-11-03T20:10:10.512Z,88.56
2017-11-03T20:12:38.388Z,88.18
2017-11-03T20:15:05.992Z,88.58
2017-11-03T20:17:33.582Z,88.74
2017-11-03T20:20:01.178Z,88.65
2017-11-03T20:22:28.744Z,88.43
2017-11-03T20:24:56.298Z,88.68
2017-11-03T20:27:23.922Z,88.93
2017-11-03T20:29:51.494Z,89.37
2017-11-03T20:32:19.066Z,89.75
2017-11-03T20:34:46.665Z,89.89
2017-11-03T20:37:14.247Z,89.80
2017-11-03T20:39:41.880Z,89.81
2017-11-03T20:42:09.585Z,89.82
2017-11-03T20:44:37.347Z,89.71
2017-11-03T20:47:04.958Z,89.64
2017-11-03T20:49:32.557Z,89.44
2017-11-03T20:52:00.149Z,89.33
2017-11-03T20:54:27.794Z,89.16
2017-11-03T20:56:59.315Z,88.91
2017-11-03T20:59:26.894Z,88.90
2017-11-03T21:01:54.557Z,88.79
2017-11-03T21:04:23.104Z,89.34
2017-11-03T21:06:50.719Z,89.38
2017-11-03T21:09:18.309Z,89.30
2017-11-03T21:11:45.972Z,89.24
2017-11-03T21:14:13.605Z,89.43
2017-11-03T21:16:41.214Z,89.17
2017-11-03T21:19:08.789Z,88.94
2017-11-03T21:21:36.465Z,89.17
2017-11-03T21:24:04.039Z,89.20
2017-11-03T21:26:32.398Z,89.17
2017-11-03T21:28:59.999Z,88.83
2017-11-03T21:31:27.565Z,89.00
2017-11-03T21:33:55.139Z,89.17
2017-11-03T21:36:22.723Z,89.31
2017-11-03T21:38:50.295Z,89.37
2017-11-03T21:41:17.857Z,89.33
2017-11-03T21:43:45.455Z,89.33
2017-11-03T21:46:13.021Z,89.18
2017-11-03T21:48:40.618Z,89.59
2017-11-03T21:51:08.209Z,89.93
2017-11-03T21:53:35.832Z,90.11
2017-11-03T21:56:03.857Z,90.22
2017-11-03T21:58:31.463Z,89.77
2017-11-03T22:01:00.357Z,89.61
2017-11-03T22:03:28.028Z,89.95
2017-11-03T22:05:55.701Z,90.05
2017-11-03T22:08:23.345Z,90.16
2017-11-03T22:10:50.931Z,89.81
2017-11-03T22:13:19.733Z,89.81
2017-11-03T22:15:47.403Z,89.81
2017-11-03T22:18:14.982Z,90.24
2017-11-03T22:20:42.604Z,90.26
2017-11-03T22:23:10.206Z,91.15
2017-11-03T22:25:37.789Z,91.32
2017-11-03T22:28:05.384Z,91.28
2017-11-03T22:30:32.980Z,91.03
2017-11-03T22:33:00.555Z,91.26
2017-11-03T22:35:28.177Z,91.25
2017-11-03T22:37:55.721Z,90.99
2017-11-03T22:40:23.276Z,91.06
2017-11-03T22:42:50.910Z,90.94
2017-11-03T22:45:18.581Z,90.32
2017-11-03T22:47:46.136Z,90.36
2017-11-03T22:50:13.719Z,91.12
2017-11-03T22:52:41.334Z,91.40
2017-11-03T22:55:08.878Z,91.38
2017-11-03T22:57:36.501Z,90.89
2017-11-03T23:00:04.195Z,90.84
2017-11-03T23:02:32.675Z,90.80
2017-11-03T23:05:00.269Z,90.77
2017-11-03T23:07:27.843Z,90.61
2017-11-03T23:09:55.408Z,90.55
2017-11-03T23:12:23.007Z,90.67
2017-11-03T23:14:50.578Z,90.46
2017-11-03T23:17:18.162Z,90.61
2017-11-03T23:19:45.772Z,90.88
2017-11-03T23:22:13.366Z,91.09
2017-11-03T23:24:41.022Z,90.89
2017-11-03T23:27:08.610Z,90.31
2017-11-03T23:29:36.178Z,90.61
2017-11-03T23:32:03.759Z,91.18
2017-11-03T23:34:31.419Z,90.96
2017-11-03T23:36:59.020Z,91.14
2017-11-03T23:39:26.590Z,91.83
2017-11-03T23:41:54.185Z,92.04
2017-11-03T23:44:21.758Z,92.17
2017-11-03T23:46:49.374Z,92.05
2017-11-03T23:49:17.005Z,92.22
2017-11-03T23:51:44.591Z,92.25
2017-11-03T23:54:12.166Z,92.60
2017-11-03T23:56:39.742Z,92.76
2017-11-03T23:59:07.312Z,92.36
